Time;durP1;ratioP1;P1;durP2;ratioP2;P2;SDS_P1;SDS_P2;PMS_P1;PMS_P2;Temp;Humidity;BMP_temperature;BMP_pressure;BME280_temperature;BME280_humidity;BME280_pressure;Samples;Min_cycle;Max_cycle;Signal;HPM_P1;HPM_P2
2022/10/07 00:02:45;;;;;;;8.20;5.67;;;;;;;10.42;93.27;101717.28;3061280;76;21019;-94
2022/10/07 00:06:47;;;;;;;8.63;5.40;;;;;;;10.37;93.15;101710.02;3097463;76;21059;-96
2022/10/07 00:10:48;;;;;;;8.68;6.10;;;;;;;10.14;93.81;101705.56;3036717;76;21094;-94
2022/10/07 00:14:49;;;;;;;6.97;4.90;;;;;;;10.02;94.36;101707.09;3064867;76;21000;-95
2022/10/07 00:18:54;;;;;;;6.35;5.03;;;;;;;10.00;95.61;101710.31;3045565;76;21013;-96
2022/10/07 00:22:55;;;;;;;5.85;5.30;;;;;;;10.03;95.45;101710.16;3046021;76;21003;-95
2022/10/07 00:26:56;;;;;;;10.23;6.05;;;;;;;10.09;95.05;101707.14;3078723;76;20992;-95
2022/10/07 00:31:04;;;;;;;7.35;5.28;;;;;;;10.13;94.75;101700.70;3051095;76;20968;-95
2022/10/07 00:35:06;;;;;;;10.90;5.28;;;;;;;10.20;94.84;101697.67;3052352;76;21008;-94
2022/10/07 00:39:11;;;;;;;4.97;4.47;;;;;;;10.19;94.31;101698.63;3068957;76;20972;-95
2022/10/07 00:43:25;;;;;;;6.58;4.75;;;;;;;10.13;93.34;101699.37;3042815;76;21047;-95
2022/10/07 00:47:33;;;;;;;7.50;4.22;;;;;;;9.97;93.90;101698.07;3087632;76;21022;-96
2022/10/07 00:51:36;;;;;;;8.15;4.85;;;;;;;9.95;94.26;101702.62;3046206;76;21039;-96
2022/10/07 00:55:37;;;;;;;5.92;4.12;;;;;;;9.98;94.69;101698.91;3036112;76;21058;-96
2022/10/07 00:59:39;;;;;;;6.55;4.47;;;;;;;9.96;93.90;101696.36;3050149;76;21012;-96
2022/10/07 01:03:41;;;;;;;7.78;5.28;;;;;;;9.93;93.65;101693.01;2996778;77;21545;-95
2022/10/07 01:07:44;;;;;;;6.05;4.60;;;;;;;9.65;94.55;101691.42;3001049;77;21001;-96
2022/10/07 01:12:12;;;;;;;6.62;4.90;;;;;;;9.50;95.37;101687.83;3008682;77;21024;-90
2022/10/07 01:16:31;;;;;;;5.40;4.45;;;;;;;9.50;97.76;101688.28;3003210;77;21000;-95
2022/10/07 01:20:58;;;;;;;5.58;4.90;;;;;;;9.29;99.52;101684.53;2998051;78;21584;-95
2022/10/07 01:25:25;;;;;;;7.33;4.30;;;;;;;9.17;98.49;101675.43;3006250;77;21009;-95
2022/10/07 01:29:42;;;;;;;7.33;5.30;;;;;;;9.20;99.01;101672.61;2992215;77;21053;-96
2022/10/07 01:33:46;;;;;;;11.90;6.45;;;;;;;9.16;98.96;101672.39;3028582;77;21087;-95
2022/10/07 01:37:52;;;;;;;7.33;4.75;;;;;;;9.18;97.96;101667.85;2988736;77;21056;-95
2022/10/07 01:41:53;;;;;;;9.25;5.55;;;;;;;9.26;98.31;101659.02;3016640;77;21036;-94
2022/10/07 01:45:55;;;;;;;7.60;4.90;;;;;;;9.34;98.12;101655.95;3000307;77;20998;-93
2022/10/07 01:49:56;;;;;;;9.20;6.00;;;;;;;9.37;97.36;101654.45;2994706;77;20984;-96
2022/10/07 01:54:20;;;;;;;7.90;5.30;;;;;;;9.17;98.68;101651.53;3024664;77;20979;-95
2022/10/07 01:58:39;;;;;;;10.72;6.90;;;;;;;9.04;98.23;101649.14;2993911;77;20998;-95
2022/10/07 02:02:55;;;;;;;6.62;5.92;;;;;;;9.11;99.54;101644.75;3043544;76;21102;-95
2022/10/07 02:07:23;;;;;;;7.35;4.85;;;;;;;9.16;98.23;101637.03;3047949;76;21042;-95
2022/10/07 02:11:31;;;;;;;8.28;4.80;;;;;;;9.13;98.21;101633.58;3023812;76;21519;-95
2022/10/07 02:15:50;;;;;;;6.47;5.58;;;;;;;9.07;98.99;101630.42;3088355;76;21062;-95
2022/10/07 02:19:55;;;;;;;7.95;6.00;;;;;;;8.99;98.47;101626.86;3028247;76;21616;-93
2022/10/07 02:23:58;;;;;;;7.85;6.15;;;;;;;8.91;99.30;101631.24;2973158;77;21553;-95
2022/10/07 02:28:04;;;;;;;9.00;6.03;;;;;;;8.94;99.40;101621.78;3032983;77;20987;-95
2022/10/07 02:32:11;;;;;;;6.42;5.53;;;;;;;8.91;98.51;101625.94;3065106;77;21012;-95
2022/10/07 02:36:18;;;;;;;10.82;6.10;;;;;;;8.75;98.43;101621.05;3072498;76;21066;-95
2022/10/07 02:40:25;;;;;;;9.13;6.33;;;;;;;8.57;100.00;101610.02;3057960;76;21032;-94
2022/10/07 02:44:38;;;;;;;10.88;6.00;;;;;;;8.42;100.00;101610.29;3028299;76;21030;-96
2022/10/07 02:48:54;;;;;;;7.92;5.60;;;;;;;8.39;100.00;101609.13;3008421;77;20951;-94
2022/10/07 02:52:57;;;;;;;7.47;5.37;;;;;;;8.39;100.00;101603.82;3049207;76;20980;-95
2022/10/07 02:57:00;;;;;;;7.75;5.80;;;;;;;8.38;100.00;101598.12;3078472;75;21073;-94
2022/10/07 03:01:04;;;;;;;11.65;5.75;;;;;;;8.32;100.00;101599.78;3078752;76;20968;-95
2022/10/07 03:05:08;;;;;;;10.05;5.08;;;;;;;8.25;100.00;101591.73;3076455;75;21019;-94
2022/10/07 03:09:10;;;;;;;6.40;5.10;;;;;;;8.23;100.00;101587.86;3034779;76;21095;-93
2022/10/07 03:13:12;;;;;;;7.58;4.90;;;;;;;8.11;100.00;101589.80;3065254;76;21125;-94
2022/10/07 03:17:13;;;;;;;7.72;5.33;;;;;;;8.13;100.00;101594.09;3053236;76;21038;-95
2022/10/07 03:21:15;;;;;;;7.15;5.10;;;;;;;8.12;100.00;101593.70;3029779;76;20976;-94
2022/10/07 03:25:16;;;;;;;15.10;7.25;;;;;;;8.15;100.00;101590.02;3052188;76;20952;-95
2022/10/07 03:29:18;;;;;;;9.95;7.62;;;;;;;8.07;100.00;101586.91;3057774;76;21019;-94
2022/10/07 03:33:23;;;;;;;13.58;9.25;;;;;;;8.15;100.00;101585.59;3089179;76;21514;-91
2022/10/07 03:37:24;;;;;;;9.83;7.10;;;;;;;8.26;100.00;101581.55;3056372;76;21523;-94
2022/10/07 03:41:25;;;;;;;12.05;8.03;;;;;;;8.05;100.00;101577.70;3027232;76;21506;-94
2022/10/07 03:45:26;;;;;;;10.23;6.80;;;;;;;7.77;100.00;101577.77;3037794;76;20944;-94
2022/10/07 03:49:27;;;;;;;22.02;8.68;;;;;;;7.62;100.00;101570.58;3070752;76;21039;-94
2022/10/07 03:53:28;;;;;;;10.60;6.60;;;;;;;7.54;100.00;101561.22;3097388;76;21049;-94
2022/10/07 04:01:49;;;;;;;10.32;7.67;;;;;;;7.38;100.00;101558.92;3051103;76;21034;-92
2022/10/07 04:06:00;;;;;;;15.55;7.08;;;;;;;7.29;100.00;101553.60;3049398;76;21039;-91
2022/10/07 04:10:01;;;;;;;12.78;7.67;;;;;;;7.27;100.00;101553.70;3037212;76;20967;-92
2022/10/07 04:14:02;;;;;;;11.88;7.62;;;;;;;7.25;100.00;101555.53;2899838;77;21535;-92
2022/10/07 04:18:03;;;;;;;12.47;7.87;;;;;;;7.46;100.00;101541.34;3027233;76;20988;-92
2022/10/07 04:22:05;;;;;;;8.70;7.78;;;;;;;7.67;100.00;101539.45;3032110;76;21007;-93
2022/10/07 04:26:09;;;;;;;11.95;8.08;;;;;;;7.64;100.00;101535.15;3052104;77;20973;-95
2022/10/07 04:30:11;;;;;;;12.28;8.43;;;;;;;7.51;100.00;101536.23;3083950;76;21509;-95
2022/10/07 04:34:12;;;;;;;17.65;8.03;;;;;;;7.37;100.00;101526.77;3051265;76;21129;-90
2022/10/07 04:38:15;;;;;;;13.88;8.18;;;;;;;7.12;100.00;101538.05;3021748;76;21041;-94
2022/10/07 04:46:36;;;;;;;12.58;8.63;;;;;;;6.93;100.00;101526.17;3044056;76;20968;-94
2022/10/07 04:50:37;;;;;;;12.13;8.15;;;;;;;6.83;100.00;101517.81;3041223;76;20935;-93
2022/10/07 04:54:38;;;;;;;10.32;6.12;;;;;;;6.76;100.00;101520.80;3062523;76;20972;-92
2022/10/07 04:58:39;;;;;;;13.72;7.37;;;;;;;6.79;100.00;101521.98;3027309;76;21004;-94
2022/10/07 05:02:41;;;;;;;16.02;6.97;;;;;;;6.86;100.00;101522.08;3023091;76;21063;-94
2022/10/07 05:06:42;;;;;;;11.93;6.65;;;;;;;6.85;100.00;101524.33;3037686;76;21090;-94
2022/10/07 05:10:44;;;;;;;12.93;8.20;;;;;;;6.82;100.00;101518.73;3033318;76;21002;-94
2022/10/07 05:14:45;;;;;;;15.28;8.70;;;;;;;6.79;100.00;101517.56;3024665;76;21522;-94
2022/10/07 05:18:47;;;;;;;14.55;9.65;;;;;;;6.73;100.00;101514.34;3038943;76;21046;-93
2022/10/07 05:22:48;;;;;;;15.45;8.73;;;;;;;6.80;100.00;101517.08;3064970;76;20991;-94
2022/10/07 05:26:50;;;;;;;13.65;9.48;;;;;;;7.02;100.00;101514.75;3041687;76;20977;-94
2022/10/07 05:31:04;;;;;;;12.58;7.85;;;;;;;7.26;100.00;101510.09;3040130;76;21610;-94
2022/10/07 05:35:06;;;;;;;18.48;11.80;;;;;;;7.40;100.00;101500.14;3062713;76;21519;-94
2022/10/07 05:39:09;;;;;;;20.72;11.78;;;;;;;7.67;100.00;101499.72;3065257;76;20948;-94
2022/10/07 05:43:10;;;;;;;16.05;9.68;;;;;;;7.91;100.00;101500.24;3036363;76;20960;-93
2022/10/07 05:47:11;;;;;;;25.88;11.70;;;;;;;7.98;100.00;101495.49;3024154;76;20989;-94
2022/10/07 05:51:13;;;;;;;29.05;14.65;;;;;;;8.00;100.00;101499.79;3029561;76;20956;-93
2022/10/07 05:55:15;;;;;;;28.02;15.48;;;;;;;8.16;100.00;101493.70;3032422;76;21502;-93
2022/10/07 05:59:16;;;;;;;32.95;16.67;;;;;;;8.42;100.00;101495.42;2995046;77;21831;-91
2022/10/07 06:03:18;;;;;;;26.07;16.48;;;;;;;8.62;100.00;101490.39;2975390;76;21507;-94
2022/10/07 06:07:19;;;;;;;41.05;30.92;;;;;;;8.78;100.00;101487.77;3049750;76;21613;-94
2022/10/07 06:15:39;;;;;;;29.02;23.45;;;;;;;9.09;100.00;101477.24;3040504;76;20973;-94
2022/10/07 06:19:40;;;;;;;25.60;19.05;;;;;;;9.29;100.00;101472.98;3061747;76;21011;-94
2022/10/07 06:23:42;;;;;;;19.55;14.80;;;;;;;9.50;100.00;101485.95;3001252;78;21073;-94
2022/10/07 06:27:43;;;;;;;23.55;20.75;;;;;;;9.67;100.00;101489.42;3036369;76;21079;-95
2022/10/07 06:31:45;;;;;;;21.45;14.58;;;;;;;9.94;100.00;101486.94;3028892;76;20975;-94
2022/10/07 06:35:46;;;;;;;25.77;17.50;;;;;;;10.20;100.00;101488.48;3026867;76;20945;-93
2022/10/07 06:39:47;;;;;;;18.80;12.33;;;;;;;10.51;100.00;101492.41;3038560;76;20964;-95
2022/10/07 06:43:48;;;;;;;17.32;12.28;;;;;;;10.77;100.00;101483.24;3049393;76;21031;-95
2022/10/07 06:47:52;;;;;;;19.15;12.88;;;;;;;10.97;98.95;101483.31;3077878;76;20975;-94
2022/10/07 06:51:53;;;;;;;31.05;12.80;;;;;;;11.13;98.68;101477.37;3005264;76;21030;-95
2022/10/07 06:55:56;;;;;;;16.25;13.15;;;;;;;11.27;98.19;101476.46;3052403;76;20984;-94
2022/10/07 06:59:59;;;;;;;19.45;12.93;;;;;;;11.40;98.05;101479.16;3024830;76;20996;-94
2022/10/07 07:04:00;;;;;;;40.83;13.78;;;;;;;11.57;98.29;101472.69;3075471;75;20967;-95
2022/10/07 07:08:02;;;;;;;16.65;12.18;;;;;;;11.74;97.26;101473.87;2988261;76;20986;-94
2022/10/07 07:12:03;;;;;;;21.25;15.68;;;;;;;11.91;97.00;101470.03;2975346;76;20940;-94
2022/10/07 07:16:05;;;;;;;19.73;13.38;;;;;;;12.08;97.63;101470.22;3058523;75;20952;-94
2022/10/07 07:20:07;;;;;;;20.62;12.80;;;;;;;12.35;98.36;101471.94;3068098;75;21581;-95
2022/10/07 07:24:09;;;;;;;18.75;12.03;;;;;;;12.51;96.36;101461.02;3036912;75;21026;-94
2022/10/07 07:28:13;;;;;;;19.52;13.93;;;;;;;12.62;95.40;101456.24;3080566;75;20982;-93
2022/10/07 07:32:14;;;;;;;18.67;12.37;;;;;;;12.88;96.27;101451.69;3088068;75;21495;-95
2022/10/07 07:36:15;;;;;;;19.15;11.88;;;;;;;13.16;96.29;101444.29;3079792;75;20968;-95
2022/10/07 07:40:19;;;;;;;16.80;11.43;;;;;;;13.43;96.00;101440.06;3049138;76;21043;-94
2022/10/07 07:44:20;;;;;;;13.72;9.10;;;;;;;13.71;96.50;101445.12;3062485;75;21465;-94
2022/10/07 07:48:21;;;;;;;13.45;9.85;;;;;;;13.92;93.46;101437.75;3079081;75;21070;-95
2022/10/07 07:52:24;;;;;;;18.25;7.90;;;;;;;14.19;93.79;101437.91;3078386;76;20994;-95
2022/10/07 07:56:25;;;;;;;10.45;8.03;;;;;;;14.48;92.08;101428.89;3077969;75;21010;-95
2022/10/07 08:00:26;;;;;;;8.73;6.70;;;;;;;14.69;89.79;101422.27;3071603;75;21510;-94
2022/10/07 08:04:28;;;;;;;8.30;5.40;;;;;;;14.91;90.54;101425.06;3073800;75;20988;-95
2022/10/07 08:08:30;;;;;;;10.95;5.50;;;;;;;15.11;90.27;101416.70;3031304;77;20978;-93
2022/10/07 08:12:31;;;;;;;8.58;4.80;;;;;;;15.28;87.56;101412.12;3073781;75;20968;-93
2022/10/07 08:16:33;;;;;;;9.08;4.53;;;;;;;15.28;86.92;101403.24;3082827;75;20937;-94
2022/10/07 08:20:35;;;;;;;7.92;3.67;;;;;;;15.44;86.25;101393.41;3080662;75;20995;-95
2022/10/07 08:24:36;;;;;;;6.03;4.08;;;;;;;15.42;87.58;101390.00;3059348;75;21578;-95
2022/10/07 08:28:38;;;;;;;8.40;5.15;;;;;;;15.50;88.69;101394.20;3044118;75;21030;-95
2022/10/07 08:32:39;;;;;;;8.88;4.33;;;;;;;15.74;88.34;101390.90;3093639;75;20940;-94
2022/10/07 08:36:42;;;;;;;14.75;4.05;;;;;;;15.69;87.44;101384.11;3002518;76;21018;-95
2022/10/07 08:40:50;;;;;;;5.05;4.42;;;;;;;15.85;87.87;101381.44;3039893;75;21470;-94
2022/10/07 08:44:52;;;;;;;7.70;3.90;;;;;;;15.87;86.87;101371.90;3041599;75;21010;-95
2022/10/07 08:49:11;;;;;;;7.83;3.33;;;;;;;15.97;87.01;101368.81;3104097;75;21030;-95
2022/10/07 08:53:17;;;;;;;5.65;4.15;;;;;;;16.03;86.52;101354.84;3057250;75;21514;-94
2022/10/07 08:57:48;;;;;;;5.22;3.40;;;;;;;16.07;87.24;101352.23;3107850;75;21019;-93
2022/10/07 09:02:19;;;;;;;6.20;3.37;;;;;;;16.15;86.20;101354.25;3068759;75;21001;-93
2022/10/07 09:06:41;;;;;;;7.62;4.12;;;;;;;16.44;85.12;101348.13;3036300;76;20928;-95
2022/10/07 09:10:48;;;;;;;6.95;3.20;;;;;;;16.53;85.50;101335.70;3059177;76;20971;-95
2022/10/07 09:14:54;;;;;;;29.52;15.58;;;;;;;16.68;84.36;101336.96;3027413;76;21036;-95
2022/10/07 09:18:58;;;;;;;39.15;22.70;;;;;;;16.90;84.21;101329.64;3040936;76;20990;-95
2022/10/07 09:23:03;;;;;;;12.33;6.97;;;;;;;16.99;84.74;101316.71;3071667;76;20994;-95
2022/10/07 09:27:10;;;;;;;7.23;4.23;;;;;;;17.06;84.09;101313.44;3070099;76;21019;-95
2022/10/07 09:31:14;;;;;;;6.50;4.30;;;;;;;17.15;85.57;101316.62;3037440;76;21019;-94
2022/10/07 09:35:20;;;;;;;14.25;8.65;;;;;;;17.30;84.59;101302.74;3094631;76;21074;-94
2022/10/07 09:39:22;;;;;;;9.48;6.17;;;;;;;17.55;86.28;101298.53;3045458;76;21031;-95
2022/10/07 09:43:25;;;;;;;10.48;6.80;;;;;;;17.62;83.45;101292.94;3046995;76;21038;-96
2022/10/07 09:47:35;;;;;;;9.95;4.15;;;;;;;17.58;81.37;101285.30;3049364;76;21039;-94
2022/10/07 09:51:38;;;;;;;8.40;6.97;;;;;;;17.72;83.81;101275.89;3035217;76;21020;-95
2022/10/07 09:55:42;;;;;;;13.03;8.08;;;;;;;17.94;81.50;101274.14;3035298;76;21542;-95
2022/10/07 09:59:43;;;;;;;22.05;14.65;;;;;;;18.13;81.92;101266.50;3024822;76;20945;-95
2022/10/07 10:03:44;;;;;;;10.48;8.85;;;;;;;18.30;80.83;101268.02;2984823;76;21601;-91
2022/10/07 10:07:47;;;;;;;4.58;3.40;;;;;;;18.35;79.31;101261.67;3043081;75;21004;-96
2022/10/07 10:12:12;;;;;;;9.08;5.47;;;;;;;18.54;79.18;101255.78;2918743;80;21004;-95
2022/10/07 10:16:36;;;;;;;4.37;3.12;;;;;;;18.69;82.19;101251.54;2946750;78;21132;-95
2022/10/07 10:20:42;;;;;;;4.37;2.87;;;;;;;18.64;80.25;101248.44;2842169;83;21022;-95
2022/10/07 10:29:34;;;;;;;6.83;4.20;;;;;;;18.91;80.60;101234.52;2832085;82;21037;-95
2022/10/07 10:33:50;;;;;;;4.72;3.12;;;;;;;19.08;78.85;101231.45;2867202;80;21091;-94
2022/10/07 10:38:17;;;;;;;6.60;3.92;;;;;;;19.07;78.00;101224.37;2920302;80;21034;-92
2022/10/07 10:42:25;;;;;;;6.05;2.85;;;;;;;19.23;78.28;101219.56;2897357;82;21133;-93
2022/10/07 10:46:53;;;;;;;5.47;2.85;;;;;;;19.22;78.80;101209.78;2886976;82;21038;-94
2022/10/07 10:51:33;;;;;;;5.65;3.20;;;;;;;19.26;79.15;101204.44;2867031;83;21031;-92
2022/10/07 10:56:18;;;;;;;11.05;3.37;;;;;;;19.40;77.38;101187.28;2872294;81;21086;-96
2022/10/07 11:00:21;;;;;;;8.38;4.05;;;;;;;19.36;77.31;101179.17;2911828;80;21031;-96
2022/10/07 11:04:39;;;;;;;10.53;4.20;;;;;;;19.53;77.23;101179.58;2907243;81;21027;-95
2022/10/07 11:08:41;;;;;;;5.58;3.37;;;;;;;19.40;76.15;101173.79;2873801;80;21656;-96
2022/10/07 11:12:47;;;;;;;6.60;3.35;;;;;;;19.61;75.71;101160.37;2852268;81;21043;-95
2022/10/07 11:16:55;;;;;;;3.83;2.10;;;;;;;19.65;75.61;101146.88;2897882;81;21003;-94
2022/10/07 11:20:58;;;;;;;6.28;3.08;;;;;;;19.65;77.76;101138.78;2887504;81;21069;-94
2022/10/07 11:25:08;;;;;;;5.65;3.00;;;;;;;19.78;76.25;101128.36;2907740;79;21060;-94
2022/10/07 11:29:48;;;;;;;7.00;2.83;;;;;;;19.75;75.05;101124.66;2969694;79;21001;-93
2022/10/07 11:34:19;;;;;;;4.53;2.27;;;;;;;19.79;75.06;101115.73;2884796;80;21198;-90
2022/10/07 11:38:25;;;;;;;7.53;3.55;;;;;;;19.68;74.24;101110.14;2838320;81;20990;-91
2022/10/07 11:42:30;;;;;;;4.20;3.22;;;;;;;19.72;74.44;101106.09;2874663;81;21530;-92
2022/10/07 11:46:46;;;;;;;3.47;3.17;;;;;;;19.74;75.37;101090.58;2861392;81;21558;-93
2022/10/07 11:50:55;;;;;;;4.55;3.30;;;;;;;19.79;76.11;101086.86;2892161;80;21108;-93
2022/10/07 11:55:07;;;;;;;4.62;3.00;;;;;;;19.95;76.53;101075.77;2820195;81;21076;-91
2022/10/07 11:59:14;;;;;;;4.85;3.85;;;;;;;20.06;74.91;101071.39;2834486;82;21399;-92
2022/10/07 12:03:26;;;;;;;7.15;3.20;;;;;;;20.14;73.74;101057.02;2849849;81;21068;-89
2022/10/07 12:07:38;;;;;;;6.97;3.45;;;;;;;20.13;73.85;101052.62;2954658;79;21027;-91
2022/10/07 12:11:45;;;;;;;5.90;3.70;;;;;;;20.23;74.32;101043.00;2986308;78;21030;-94
2022/10/07 12:15:47;;;;;;;;;;;;;;;20.34;72.78;101035.90;2937246;78;21050;-95
2022/10/07 12:20:38;;;;;;;7.33;3.17;;;;;;;20.36;73.22;101022.23;2973396;78;20097;-93
2022/10/07 12:24:44;;;;;;;4.08;2.90;;;;;;;20.44;74.29;101019.98;2991680;78;21034;-94
2022/10/07 12:28:47;;;;;;;4.72;4.33;;;;;;;20.47;71.51;101013.73;2977489;79;21016;-94
2022/10/07 12:32:55;;;;;;;5.05;4.17;;;;;;;20.48;71.35;101005.97;2967269;78;21125;-93
2022/10/07 12:37:28;;;;;;;7.92;5.53;;;;;;;20.39;73.07;101000.27;3001351;77;20975;-95
2022/10/07 12:41:39;;;;;;;5.42;4.97;;;;;;;20.45;71.80;100998.21;2918127;80;21016;-96
2022/10/07 12:45:42;;;;;;;5.97;3.50;;;;;;;20.52;71.11;100997.02;2912423;80;21046;-92
2022/10/07 12:49:57;;;;;;;6.47;4.15;;;;;;;20.52;70.53;100984.85;2938628;80;21034;-92
2022/10/07 12:53:59;;;;;;;4.67;4.08;;;;;;;20.60;70.68;100974.00;2956625;80;21002;-91
2022/10/07 13:03:02;;;;;;;5.50;4.37;;;;;;;20.49;72.50;100967.12;2937487;79;21046;-91
2022/10/07 13:07:21;;;;;;;3.80;3.20;;;;;;;20.51;72.27;100964.25;2869214;80;20992;-92
2022/10/07 13:11:49;;;;;;;7.22;4.00;;;;;;;20.60;72.23;100955.60;2858040;80;22213;-91
2022/10/07 13:15:58;;;;;;;6.53;4.20;;;;;;;20.66;72.83;100946.78;2910423;80;20993;-90
2022/10/07 13:20:34;;;;;;;13.80;2.85;;;;;;;20.73;71.43;100940.98;2888576;79;21053;-90
2022/10/07 13:24:43;;;;;;;4.30;3.27;;;;;;;20.75;71.26;100934.06;2886345;80;21017;-88
2022/10/07 13:28:51;;;;;;;5.30;2.80;;;;;;;20.82;70.04;100923.75;2911764;80;20963;-88
2022/10/07 13:32:53;;;;;;;7.87;4.42;;;;;;;20.82;71.60;100910.73;2975019;79;21051;-89
2022/10/07 13:36:54;;;;;;;5.20;3.92;;;;;;;20.92;71.56;100911.36;2870123;79;20965;-88
2022/10/07 13:41:03;;;;;;;9.08;5.40;;;;;;;20.92;70.96;100905.95;2934505;80;21070;-91
2022/10/07 13:45:06;;;;;;;7.12;4.85;;;;;;;20.95;70.97;100900.17;2894040;80;21037;-91
2022/10/07 13:49:11;;;;;;;10.82;6.12;;;;;;;20.94;70.62;100895.79;2941854;79;21046;-96
2022/10/07 13:53:20;;;;;;;11.83;4.90;;;;;;;20.96;72.36;100885.63;2894296;79;21021;-93
2022/10/07 13:57:23;;;;;;;4.78;4.22;;;;;;;20.91;71.82;100876.38;2956880;79;21049;-95
2022/10/07 14:01:29;;;;;;;5.53;3.15;;;;;;;20.88;73.07;100859.16;2985117;77;21098;-93
2022/10/07 14:05:30;;;;;;;3.98;3.47;;;;;;;20.86;73.20;100862.06;2976042;79;21383;-94
2022/10/07 14:09:37;;;;;;;7.45;4.72;;;;;;;20.94;73.98;100852.53;2965622;79;21568;-95
2022/10/07 14:13:42;;;;;;;5.12;4.60;;;;;;;21.00;72.83;100848.27;2962120;79;20967;-93
2022/10/07 14:17:50;;;;;;;8.18;5.78;;;;;;;21.01;73.12;100843.68;2947129;79;21003;-95
2022/10/07 14:21:52;;;;;;;7.28;4.35;;;;;;;21.06;73.59;100838.59;3009281;77;20994;-95
2022/10/07 14:26:08;;;;;;;19.42;13.30;;;;;;;21.01;73.16;100831.52;2969506;79;20939;-95
2022/10/07 14:35:19;;;;;;;27.98;14.20;;;;;;;20.98;73.81;100815.98;3016352;77;20975;-95
2022/10/07 14:39:33;;;;;;;24.05;12.55;;;;;;;20.96;73.95;100815.33;2916894;79;20998;-95
2022/10/07 14:43:38;;;;;;;60.63;28.83;;;;;;;20.96;75.13;100800.98;2929966;79;20977;-95
2022/10/07 14:47:40;;;;;;;46.70;22.30;;;;;;;20.97;74.06;100799.43;2952569;79;20971;-94
2022/10/07 15:07:13;;;;;;;9.45;5.30;;;;;;;21.00;76.73;100764.93;2879364;80;22198;-91
2022/10/07 15:11:19;;;;;;;7.03;4.20;;;;;;;20.91;77.17;100762.81;2822001;82;21103;-93
2022/10/07 15:15:20;;;;;;;13.88;4.55;;;;;;;20.83;77.59;100757.81;2834637;82;21001;-93
2022/10/07 15:19:21;;;;;;;6.30;4.55;;;;;;;20.68;77.44;100760.45;2810571;83;21035;-91
2022/10/07 15:23:23;;;;;;;21.48;11.78;;;;;;;20.53;79.22;100751.44;2826559;82;21008;-92
2022/10/07 15:27:24;;;;;;;8.90;5.53;;;;;;;20.50;79.80;100751.28;2819441;83;21140;-92
2022/10/07 15:31:28;;;;;;;23.10;14.98;;;;;;;20.44;80.27;100747.95;2814047;83;21016;-94
2022/10/07 15:35:32;;;;;;;21.30;11.30;;;;;;;20.39;81.28;100745.78;2809090;82;21091;-93
2022/10/07 15:39:33;;;;;;;19.15;13.48;;;;;;;20.33;81.75;100741.11;2803732;82;21012;-94
2022/10/07 15:43:34;;;;;;;19.10;12.70;;;;;;;20.25;81.44;100739.83;2821880;82;21072;-93
2022/10/07 15:47:39;;;;;;;23.12;13.60;;;;;;;20.18;81.96;100738.84;2832077;82;21011;-93
2022/10/07 15:51:41;;;;;;;15.80;8.93;;;;;;;20.06;82.35;100730.30;2824356;82;21030;-94
2022/10/07 15:55:54;;;;;;;22.87;13.48;;;;;;;19.95;82.56;100734.24;2787214;83;21600;-94
2022/10/07 15:59:56;;;;;;;21.70;15.25;;;;;;;19.83;82.91;100719.75;2775632;84;21096;-93
2022/10/07 16:04:00;;;;;;;14.05;9.88;;;;;;;19.76;83.55;100721.48;2818494;81;21045;-93
2022/10/07 16:08:01;;;;;;;16.95;12.37;;;;;;;19.63;84.34;100715.30;2818077;83;21012;-92
2022/10/07 16:12:03;;;;;;;10.90;8.85;;;;;;;19.57;84.51;100711.97;2818908;82;21067;-94
2022/10/07 16:16:11;;;;;;;11.90;8.10;;;;;;;19.52;84.79;100717.02;2813894;81;21080;-90
2022/10/07 16:20:14;;;;;;;18.15;11.03;;;;;;;19.40;85.35;100716.06;2827673;82;21047;-93
2022/10/07 16:24:18;;;;;;;20.40;13.48;;;;;;;19.32;85.30;100710.68;2746604;83;21115;-95
2022/10/07 16:32:40;;;;;;;26.33;19.77;;;;;;;19.24;85.67;100706.14;2786902;84;21024;-95
2022/10/07 16:36:43;;;;;;;31.27;17.05;;;;;;;19.17;86.06;100704.34;2656029;86;21153;-94
2022/10/07 16:40:54;;;;;;;16.52;12.20;;;;;;;19.07;86.89;100693.75;2740880;85;21031;-93
2022/10/07 16:44:55;;;;;;;11.45;9.43;;;;;;;19.02;86.88;100698.30;2734514;85;21088;-93
2022/10/07 16:48:57;;;;;;;18.02;9.58;;;;;;;18.97;87.19;100702.81;2750778;84;21001;-94
2022/10/07 16:52:59;;;;;;;11.95;5.85;;;;;;;18.79;87.82;100692.23;2791620;83;21063;-93
2022/10/07 16:57:00;;;;;;;12.60;8.50;;;;;;;18.70;88.46;100694.09;2821645;83;21075;-94
2022/10/07 17:01:11;;;;;;;17.07;11.90;;;;;;;18.69;88.80;100689.72;2802430;83;21044;-93
2022/10/07 17:05:13;;;;;;;14.53;12.15;;;;;;;18.67;88.72;100689.05;2830897;83;21083;-93
2022/10/07 17:09:14;;;;;;;21.55;10.85;;;;;;;18.64;89.03;100689.36;2814402;82;21051;-92
2022/10/07 17:13:18;;;;;;;16.60;9.60;;;;;;;18.56;89.44;100686.69;2813847;83;21043;-93
2022/10/07 17:17:20;;;;;;;12.15;9.18;;;;;;;18.52;89.64;100689.39;2762442;83;21063;-93
2022/10/07 17:21:22;;;;;;;11.22;8.55;;;;;;;18.49;89.93;100683.82;2809314;82;21104;-92
2022/10/07 17:25:23;;;;;;;10.08;7.95;;;;;;;18.44;91.08;100674.55;2820122;83;21023;-91
2022/10/07 17:29:24;;;;;;;11.65;8.23;;;;;;;18.37;91.61;100673.89;2820266;83;21037;-94
2022/10/07 17:33:26;;;;;;;9.78;8.65;;;;;;;18.18;93.22;100668.83;2819081;83;21043;-92
2022/10/07 17:37:27;;;;;;;15.38;8.88;;;;;;;18.03;94.61;100667.30;2819991;83;21624;-93
2022/10/07 17:41:31;;;;;;;15.45;10.35;;;;;;;17.81;96.90;100676.30;2812402;83;21020;-93
2022/10/07 17:45:38;;;;;;;13.65;10.48;;;;;;;17.72;97.26;100667.36;2814419;83;21112;-92
2022/10/07 17:49:39;;;;;;;17.35;11.53;;;;;;;17.58;97.87;100662.60;2839380;82;21072;-94
2022/10/07 17:53:42;;;;;;;16.80;10.88;;;;;;;17.36;99.83;100660.32;2780481;84;21053;-92
2022/10/07 17:57:43;;;;;;;14.80;11.53;;;;;;;17.34;99.02;100660.16;2815047;82;21045;-93
2022/10/07 18:01:44;;;;;;;17.17;13.05;;;;;;;17.45;98.62;100657.16;2810321;82;21036;-92
2022/10/07 18:05:52;;;;;;;23.32;16.45;;;;;;;17.55;97.86;100649.83;2831245;82;21067;-93
2022/10/07 18:09:54;;;;;;;18.05;14.65;;;;;;;17.60;97.87;100648.48;2826472;82;21073;-93
2022/10/07 18:18:14;;;;;;;21.95;13.65;;;;;;;17.45;99.66;100645.06;2811986;82;21069;-95
2022/10/07 18:22:15;;;;;;;27.02;19.77;;;;;;;17.42;100.00;100642.70;2804935;83;21086;-92
2022/10/07 18:26:17;;;;;;;19.67;15.00;;;;;;;17.40;100.00;100642.03;2823989;82;21107;-93
2022/10/07 18:30:18;;;;;;;17.32;14.80;;;;;;;17.35;100.00;100641.68;2718716;83;21064;-91
2022/10/07 18:34:20;;;;;;;15.58;12.20;;;;;;;17.24;100.00;100628.85;2707739;85;21020;-91
2022/10/07 18:38:21;;;;;;;28.07;19.82;;;;;;;17.12;100.00;100620.75;2690804;86;21076;-90
2022/10/07 18:42:22;;;;;;;21.62;16.50;;;;;;;16.95;100.00;100624.66;2718949;85;21599;-92
2022/10/07 18:46:23;;;;;;;22.52;15.48;;;;;;;16.85;100.00;100621.23;2708832;85;21132;-93
2022/10/07 18:50:24;;;;;;;18.57;15.30;;;;;;;16.77;100.00;100622.02;2678726;86;21053;-90
2022/10/07 18:54:25;;;;;;;21.45;19.20;;;;;;;16.70;100.00;100621.84;2685265;86;21060;-91
2022/10/07 18:58:28;;;;;;;28.42;17.62;;;;;;;16.60;100.00;100618.88;2698324;87;21124;-91
2022/10/07 19:02:29;;;;;;;26.35;20.90;;;;;;;16.49;100.00;100619.98;2719490;86;21082;-90
2022/10/07 19:06:33;;;;;;;26.80;20.92;;;;;;;16.39;100.00;100607.99;2724228;86;21063;-91
2022/10/07 19:10:41;;;;;;;34.35;22.90;;;;;;;16.35;100.00;100610.16;2784080;82;21083;-92
2022/10/07 19:14:42;;;;;;;32.73;21.37;;;;;;;16.24;100.00;100605.03;2778140;83;21162;-88
2022/10/07 19:23:15;;;;;;;30.95;15.70;;;;;;;16.20;100.00;100610.37;2747258;82;21139;-60
2022/10/07 19:27:16;;;;;;;23.57;16.80;;;;;;;16.21;100.00;100609.38;2719709;86;21474;-61
2022/10/07 19:31:24;;;;;;;20.48;16.80;;;;;;;16.19;100.00;100608.69;2692469;85;21097;-60
2022/10/07 19:35:30;;;;;;;19.77;16.62;;;;;;;16.19;100.00;100602.80;2732587;85;21106;-59
2022/10/07 19:39:29;;;;;;;23.98;17.85;;;;;;;16.19;100.00;100600.63;2722956;85;21069;-59
2022/10/07 19:43:33;;;;;;;26.68;18.17;;;;;;;16.24;100.00;100599.18;2776099;84;21096;-59
2022/10/07 19:47:34;;;;;;;21.23;14.90;;;;;;;16.33;100.00;100597.89;2737735;84;21037;-59
2022/10/07 19:51:37;;;;;;;23.45;17.05;;;;;;;16.38;100.00;100592.41;2757355;84;21047;-59